createdAt,value
2019-02-25T00:14:19.745Z,61.35
2019-02-25T00:16:49.046Z,61.59
2019-02-25T00:19:18.024Z,61.31
2019-02-25T00:21:47.115Z,61.52
2019-02-25T00:24:16.270Z,61.94
2019-02-25T00:26:45.416Z,61.72
2019-02-25T00:29:14.501Z,61.48
2019-02-25T00:31:43.648Z,62.04
2019-02-25T00:34:12.801Z,62.18
2019-02-25T00:36:41.615Z,62.04
2019-02-25T00:39:11.111Z,62.10
2019-02-25T00:41:40.208Z,61.41
2019-02-25T00:44:09.179Z,61.47
2019-02-25T00:46:38.488Z,61.49
2019-02-25T00:49:07.609Z,61.83
2019-02-25T00:51:36.689Z,61.13
2019-02-25T00:54:05.831Z,61.71
2019-02-25T00:56:34.926Z,61.05
2019-02-25T00:59:04.036Z,61.48
2019-02-25T01:01:33.534Z,61.58
2019-02-25T01:04:02.573Z,61.33
2019-02-25T01:06:32.118Z,60.26
2019-02-25T01:09:01.379Z,60.26
2019-02-25T01:11:30.479Z,59.99
2019-02-25T01:13:59.555Z,60.09
2019-02-25T01:16:28.692Z,59.19
2019-02-25T01:18:57.756Z,58.98
2019-02-25T01:21:26.760Z,59.66
2019-02-25T01:23:56.141Z,59.87
2019-02-25T01:26:25.246Z,59.10
2019-02-25T01:28:54.654Z,59.86
2019-02-25T01:31:23.973Z,59.83
2019-02-25T01:33:53.675Z,59.87
2019-02-25T01:36:22.674Z,59.93
2019-02-25T01:38:52.451Z,60.11
2019-02-25T01:41:21.584Z,60.19
2019-02-25T01:43:50.712Z,60.24
2019-02-25T01:46:19.651Z,60.52
2019-02-25T01:48:48.748Z,60.30
2019-02-25T01:51:17.812Z,60.57
2019-02-25T01:53:46.854Z,60.48
2019-02-25T01:56:15.965Z,60.25
2019-02-25T01:58:45.372Z,60.18
2019-02-25T02:01:14.677Z,59.79
2019-02-25T02:03:43.852Z,59.10
2019-02-25T02:06:12.945Z,58.91
2019-02-25T02:08:42.139Z,58.96
2019-02-25T02:11:11.121Z,59.37
2019-02-25T02:13:40.327Z,59.79
2019-02-25T02:16:09.461Z,59.82
2019-02-25T02:18:38.535Z,59.78
2019-02-25T02:21:07.624Z,59.98
2019-02-25T02:23:36.947Z,60.31
2019-02-25T02:26:06.066Z,60.84
2019-02-25T02:28:35.207Z,61.47
2019-02-25T02:31:05.103Z,61.28
2019-02-25T02:33:34.216Z,61.42
2019-02-25T02:36:03.331Z,61.57
2019-02-25T02:38:32.500Z,61.99
2019-02-25T02:41:01.603Z,61.77
2019-02-25T02:43:30.698Z,61.58
2019-02-25T02:46:07.761Z,61.29
2019-02-25T02:48:44.492Z,61.69
2019-02-25T02:51:14.166Z,61.45
2019-02-25T02:53:43.276Z,61.43
2019-02-25T02:56:12.446Z,61.26
2019-02-25T02:58:41.620Z,61.41
2019-02-25T03:01:10.699Z,61.15
2019-02-25T03:03:39.763Z,61.44
2019-02-25T03:06:09.054Z,61.30
2019-02-25T03:08:38.049Z,61.11
2019-02-25T03:11:07.364Z,61.04
2019-02-25T03:13:36.553Z,61.08
2019-02-25T03:16:05.673Z,61.12
2019-02-25T03:18:34.714Z,61.38
2019-02-25T03:21:03.837Z,61.21
2019-02-25T03:23:33.031Z,60.95
2019-02-25T03:26:02.226Z,60.51
2019-02-25T03:28:31.363Z,61.02
2019-02-25T03:31:00.445Z,61.28
2019-02-25T03:33:29.518Z,61.43
2019-02-25T03:35:58.648Z,60.95
2019-02-25T03:38:27.595Z,61.23
2019-02-25T03:40:57.312Z,61.44
2019-02-25T03:43:26.477Z,61.79
2019-02-25T03:45:55.530Z,61.95
2019-02-25T03:48:27.461Z,62.29
2019-02-25T03:50:57.260Z,62.28
2019-02-25T03:53:26.302Z,61.99
2019-02-25T03:55:56.017Z,62.04
2019-02-25T03:58:25.066Z,62.04
2019-02-25T04:00:54.261Z,61.96
2019-02-25T04:03:23.453Z,62.26
2019-02-25T04:05:52.643Z,62.20
2019-02-25T04:08:21.675Z,62.51
2019-02-25T04:10:50.710Z,62.61
2019-02-25T04:13:19.720Z,62.90
2019-02-25T04:15:48.810Z,62.74
2019-02-25T04:18:18.517Z,62.70
2019-02-25T04:20:47.683Z,62.54
2019-02-25T04:23:16.719Z,62.77
2019-02-25T04:25:45.818Z,62.60
2019-02-25T04:28:14.855Z,62.97
2019-02-25T04:30:45.075Z,62.14
2019-02-25T04:33:14.064Z,62.03
2019-02-25T04:35:43.170Z,61.89
2019-02-25T04:38:12.232Z,61.90
2019-02-25T04:40:41.288Z,61.44
2019-02-25T04:43:10.376Z,61.55
2019-02-25T04:45:39.503Z,61.23
2019-02-25T04:48:08.662Z,60.88
2019-02-25T04:50:37.647Z,60.32
2019-02-25T04:53:06.805Z,59.80
2019-02-25T04:55:35.727Z,59.54
2019-02-25T04:58:04.739Z,59.61
2019-02-25T05:00:34.048Z,59.34
2019-02-25T05:03:09.417Z,59.67
2019-02-25T05:05:38.511Z,59.32
2019-02-25T05:08:07.559Z,58.83
2019-02-25T05:10:36.725Z,58.77
2019-02-25T05:13:06.036Z,59.00
2019-02-25T05:15:35.428Z,58.85
2019-02-25T05:18:04.529Z,58.70
2019-02-25T05:20:33.696Z,59.07
2019-02-25T05:23:02.654Z,60.05
2019-02-25T05:25:31.703Z,59.57
2019-02-25T05:28:00.949Z,59.53
2019-02-25T05:30:29.767Z,59.55
2019-02-25T05:32:59.137Z,59.10
2019-02-25T05:35:28.175Z,58.64
2019-02-25T05:37:57.252Z,58.20
2019-02-25T05:40:26.532Z,58.59
2019-02-25T05:42:55.663Z,58.56
2019-02-25T05:45:24.739Z,58.44
2019-02-25T05:47:53.671Z,58.88
2019-02-25T05:50:22.942Z,59.17
2019-02-25T05:52:52.015Z,59.41
2019-02-25T05:55:21.177Z,59.29
2019-02-25T05:57:50.311Z,59.37
2019-02-25T06:00:21.451Z,59.37
2019-02-25T06:02:50.652Z,59.21
2019-02-25T06:05:19.921Z,59.17
2019-02-25T06:07:49.040Z,59.15
2019-02-25T06:10:18.160Z,59.42
2019-02-25T06:12:47.310Z,59.49
2019-02-25T06:15:16.563Z,59.54
2019-02-25T06:17:45.541Z,60.25
2019-02-25T06:20:15.072Z,59.87
2019-02-25T06:22:44.301Z,59.34
2019-02-25T06:25:13.813Z,58.93
2019-02-25T06:27:42.996Z,59.14
2019-02-25T06:30:14.664Z,59.28
2019-02-25T06:32:44.125Z,58.92
2019-02-25T06:35:13.858Z,59.42
2019-02-25T06:37:42.919Z,60.13
2019-02-25T06:40:15.650Z,59.65
2019-02-25T06:42:42.432Z,59.55
2019-02-25T06:45:12.890Z,59.05
2019-02-25T06:47:41.936Z,59.11
2019-02-25T06:50:11.948Z,58.50
2019-02-25T06:52:41.108Z,58.43
2019-02-25T06:55:12.012Z,59.07
2019-02-25T06:57:41.127Z,58.97
2019-02-25T07:00:12.894Z,58.50
2019-02-25T07:02:41.986Z,58.99
2019-02-25T07:05:21.192Z,58.44
2019-02-25T07:07:54.919Z,58.27
2019-02-25T07:10:29.295Z,59.12
2019-02-25T07:13:03.459Z,58.35
2019-02-25T07:16:36.304Z,57.63
2019-02-25T07:19:10.560Z,57.83
2019-02-25T07:22:43.475Z,57.42
2019-02-25T07:25:17.695Z,56.57
2019-02-25T07:29:54.579Z,56.11
2019-02-25T07:33:29.452Z,56.11
2019-02-25T07:36:18.875Z,55.01
2019-02-25T07:40:58.543Z,54.69
2019-02-25T07:43:36.573Z,55.52
2019-02-25T07:46:17.604Z,54.79
2019-02-25T07:48:53.719Z,53.71
2019-02-25T07:51:32.795Z,53.29
2019-02-25T07:54:07.853Z,53.59
2019-02-25T07:56:42.815Z,54.46
2019-02-25T07:59:16.039Z,53.85
2019-02-25T08:01:49.285Z,52.60
2019-02-25T08:04:25.435Z,53.71
2019-02-25T08:07:34.019Z,53.41
2019-02-25T08:10:06.975Z,52.73
2019-02-25T08:12:41.210Z,52.03
2019-02-25T08:15:17.492Z,52.19
2019-02-25T08:17:51.804Z,52.03
2019-02-25T08:21:27.622Z,50.01
2019-02-25T08:24:32.880Z,51.71
2019-02-25T08:27:07.377Z,50.75
2019-02-25T08:29:41.718Z,50.35
2019-02-25T08:32:36.181Z,49.87
2019-02-25T08:35:12.808Z,46.45
2019-02-25T08:38:05.357Z,45.03
2019-02-25T08:40:46.053Z,46.07
2019-02-25T08:43:20.135Z,45.81
2019-02-25T08:45:56.296Z,42.89
2019-02-25T08:48:59.882Z,42.08
2019-02-25T08:51:29.044Z,43.18
2019-02-25T08:53:58.175Z,41.21
2019-02-25T08:56:27.360Z,40.42
2019-02-25T08:58:56.435Z,41.48
2019-02-25T09:01:25.540Z,42.44
2019-02-25T09:03:54.817Z,40.96
2019-02-25T09:06:23.941Z,41.53
2019-02-25T09:08:53.067Z,40.56
2019-02-25T09:11:22.420Z,40.42
2019-02-25T09:13:51.498Z,37.73
2019-02-25T09:16:20.603Z,38.25
2019-02-25T09:18:49.733Z,37.02
2019-02-25T09:21:18.763Z,37.03
2019-02-25T09:23:48.561Z,35.41
2019-02-25T09:26:17.884Z,34.45
2019-02-25T09:28:46.989Z,35.41
2019-02-25T09:31:15.996Z,33.25
2019-02-25T09:33:45.312Z,34.95
2019-02-25T09:36:14.512Z,33.75
2019-02-25T09:38:44.178Z,31.74
2019-02-25T09:41:13.331Z,36.95
2019-02-25T09:43:42.402Z,33.53
2019-02-25T09:46:11.498Z,29.95
2019-02-25T09:48:40.710Z,31.59
2019-02-25T09:51:11.258Z,32.26
2019-02-25T09:53:38.989Z,30.42
2019-02-25T09:56:08.270Z,31.74
2019-02-25T09:58:38.007Z,33.00
2019-02-25T10:01:07.288Z,32.02
2019-02-25T10:03:36.422Z,31.35
2019-02-25T10:06:06.038Z,31.51
2019-02-25T10:08:35.087Z,32.28
2019-02-25T10:11:04.410Z,32.21
2019-02-25T10:13:33.532Z,33.91
2019-02-25T10:16:03.278Z,32.30
2019-02-25T10:18:32.719Z,32.16
2019-02-25T10:21:01.998Z,32.79
2019-02-25T10:23:31.141Z,34.25
2019-02-25T10:26:00.235Z,31.24
2019-02-25T10:28:29.897Z,32.44
2019-02-25T10:30:59.027Z,31.21
2019-02-25T10:33:28.329Z,32.02
2019-02-25T10:35:57.400Z,33.73
2019-02-25T10:38:26.498Z,33.38
2019-02-25T10:40:55.702Z,33.67
2019-02-25T10:43:26.094Z,33.48
2019-02-25T10:45:54.659Z,32.37
2019-02-25T10:48:25.749Z,32.49
2019-02-25T10:50:56.022Z,34.48
2019-02-25T10:53:22.181Z,34.15
2019-02-25T10:55:58.269Z,34.97
2019-02-25T10:58:29.011Z,35.74
2019-02-25T11:00:56.556Z,33.45
2019-02-25T11:03:25.815Z,34.20
2019-02-25T11:05:56.367Z,33.56
2019-02-25T11:08:24.524Z,32.48
2019-02-25T11:10:58.675Z,34.00
2019-02-25T11:13:29.696Z,33.34
2019-02-25T11:15:57.552Z,32.34
2019-02-25T11:18:28.328Z,33.22
2019-02-25T11:20:56.018Z,34.66
2019-02-25T11:23:25.088Z,33.61
2019-02-25T11:25:56.274Z,32.80
2019-02-25T11:28:26.124Z,32.92
2019-02-25T11:30:53.799Z,33.10
2019-02-25T11:33:23.223Z,32.55
2019-02-25T11:35:51.177Z,32.13
2019-02-25T11:38:20.279Z,33.25
2019-02-25T11:40:49.403Z,34.06
2019-02-25T11:43:19.471Z,31.08
2019-02-25T11:45:47.658Z,31.10
2019-02-25T11:48:16.940Z,31.56
2019-02-25T11:50:46.043Z,31.07
2019-02-25T11:53:15.407Z,31.05
2019-02-25T11:55:44.512Z,29.81
2019-02-25T11:58:13.567Z,30.92
2019-02-25T12:00:42.661Z,28.96
2019-02-25T12:03:11.764Z,30.08
2019-02-25T12:05:40.841Z,31.12
2019-02-25T12:08:09.917Z,30.33
2019-02-25T12:10:39.179Z,30.41
2019-02-25T12:13:08.415Z,30.92
2019-02-25T12:15:37.546Z,30.10
2019-02-25T12:18:06.762Z,32.14
2019-02-25T12:20:36.027Z,30.11
2019-02-25T12:23:05.557Z,30.85
2019-02-25T12:25:35.416Z,29.01
2019-02-25T12:28:04.527Z,29.35
2019-02-25T12:30:33.780Z,28.59
2019-02-25T12:33:02.866Z,28.06
2019-02-25T12:35:32.031Z,28.35
2019-02-25T12:38:00.929Z,27.24
2019-02-25T12:40:30.052Z,27.80
2019-02-25T12:42:59.220Z,28.12
2019-02-25T12:45:28.364Z,29.75
2019-02-25T12:47:57.443Z,30.81
2019-02-25T12:50:26.393Z,29.89
2019-02-25T12:52:55.498Z,30.95
2019-02-25T12:55:25.219Z,28.84
2019-02-25T12:57:54.343Z,29.60
2019-02-25T13:00:23.408Z,28.12
2019-02-25T13:02:52.561Z,28.79
2019-02-25T13:05:21.708Z,28.42
2019-02-25T13:07:50.829Z,29.19
2019-02-25T13:10:20.768Z,28.67
2019-02-25T13:12:51.536Z,28.18
2019-02-25T13:15:19.039Z,28.59
2019-02-25T13:17:48.155Z,28.29
2019-02-25T13:20:17.239Z,26.42
2019-02-25T13:22:46.202Z,25.92
2019-02-25T13:25:15.344Z,24.64
2019-02-25T13:27:44.383Z,24.22
2019-02-25T13:30:14.769Z,23.64
2019-02-25T13:32:44.001Z,22.50
2019-02-25T13:35:13.548Z,21.86
2019-02-25T13:37:42.706Z,23.27
2019-02-25T13:40:12.313Z,22.69
2019-02-25T13:42:41.437Z,21.68
2019-02-25T13:45:11.306Z,22.48
2019-02-25T13:47:40.482Z,22.75
2019-02-25T13:50:10.862Z,23.02
2019-02-25T13:52:47.869Z,21.70
2019-02-25T13:55:09.767Z,22.09
2019-02-25T13:57:38.916Z,21.59
2019-02-25T14:00:13.672Z,22.11
2019-02-25T14:02:42.881Z,23.19
2019-02-25T14:05:12.001Z,24.13
2019-02-25T14:07:41.081Z,24.18
2019-02-25T14:10:10.955Z,24.95
2019-02-25T14:12:40.212Z,25.96
2019-02-25T14:15:09.719Z,26.70
2019-02-25T14:17:38.872Z,27.51
2019-02-25T14:20:11.176Z,29.42
2019-02-25T14:22:40.332Z,30.41
2019-02-25T14:25:12.454Z,31.61
2019-02-25T14:27:40.351Z,32.18
2019-02-25T14:30:13.012Z,33.37
2019-02-25T14:32:42.225Z,32.58
2019-02-25T14:35:11.300Z,31.27
2019-02-25T14:37:40.395Z,30.87
2019-02-25T14:40:14.460Z,30.59
2019-02-25T14:42:42.593Z,29.58
2019-02-25T14:45:10.115Z,30.30
2019-02-25T14:47:40.071Z,29.87
2019-02-25T14:50:11.001Z,30.31
2019-02-25T14:52:40.123Z,30.33
2019-02-25T14:55:10.997Z,31.68
2019-02-25T14:57:40.728Z,31.91
2019-02-25T15:00:09.903Z,33.46
2019-02-25T15:02:39.499Z,34.87
2019-02-25T15:05:08.727Z,34.88
2019-02-25T15:07:38.008Z,36.27
2019-02-25T15:10:09.177Z,35.77
2019-02-25T15:12:38.354Z,35.52
2019-02-25T15:15:08.841Z,36.33
2019-02-25T15:17:37.411Z,36.21
2019-02-25T15:20:06.692Z,36.96
2019-02-25T15:22:36.291Z,38.16
2019-02-25T15:25:05.355Z,38.27
2019-02-25T15:27:34.588Z,38.88
2019-02-25T15:30:03.778Z,37.67
2019-02-25T15:32:33.558Z,38.92
2019-02-25T15:35:01.742Z,39.34
2019-02-25T15:37:30.974Z,39.99
2019-02-25T15:39:59.953Z,40.09
2019-02-25T15:42:30.097Z,39.53
2019-02-25T15:44:58.315Z,39.01
2019-02-25T15:47:28.104Z,39.82
2019-02-25T15:49:59.720Z,40.09
2019-02-25T15:52:27.746Z,40.65
2019-02-25T15:54:55.507Z,40.33
2019-02-25T15:57:26.296Z,40.98
2019-02-25T15:59:53.791Z,39.06
2019-02-25T16:02:22.885Z,40.36
2019-02-25T16:04:53.932Z,40.12
2019-02-25T16:07:23.866Z,39.99
2019-02-25T16:09:50.545Z,40.00
2019-02-25T16:12:23.212Z,40.71
2019-02-25T16:14:51.000Z,40.41
2019-02-25T16:17:19.084Z,40.08
2019-02-25T16:19:53.142Z,40.68
2019-02-25T16:22:18.400Z,39.85
2019-02-25T16:24:47.242Z,40.76
2019-02-25T16:27:18.669Z,40.08
2019-02-25T16:29:46.112Z,40.71
2019-02-25T16:32:16.895Z,41.22
2019-02-25T16:34:44.448Z,41.21
2019-02-25T16:37:13.512Z,41.36
2019-02-25T16:39:42.587Z,41.51
2019-02-25T16:42:11.882Z,41.71
2019-02-25T16:44:41.480Z,41.55
2019-02-25T16:47:11.819Z,42.33
2019-02-25T16:49:39.839Z,43.24
2019-02-25T16:52:09.008Z,42.24
2019-02-25T16:54:38.039Z,42.39
2019-02-25T16:57:07.345Z,41.91
2019-02-25T16:59:36.311Z,42.75
2019-02-25T17:02:07.136Z,43.19
2019-02-25T17:04:34.672Z,43.85
2019-02-25T17:07:03.876Z,44.67
2019-02-25T17:09:34.148Z,43.60
2019-02-25T17:12:02.883Z,43.43
2019-02-25T17:14:31.363Z,43.31
2019-02-25T17:17:00.363Z,44.19
2019-02-25T17:19:29.553Z,44.66
2019-02-25T17:21:58.587Z,44.38
2019-02-25T17:24:30.021Z,45.07
2019-02-25T17:26:57.387Z,45.33
2019-02-25T17:29:26.541Z,46.54
2019-02-25T17:31:57.525Z,47.21
2019-02-25T17:34:24.947Z,44.82
2019-02-25T17:36:54.597Z,44.65
2019-02-25T17:39:22.968Z,45.03
2019-02-25T17:41:52.540Z,45.24
2019-02-25T17:44:24.235Z,44.91
2019-02-25T17:46:50.667Z,44.71
2019-02-25T17:49:19.960Z,44.59
2019-02-25T17:51:49.613Z,44.20
2019-02-25T17:54:18.598Z,44.13
2019-02-25T17:56:49.232Z,44.82
2019-02-25T17:59:16.876Z,46.15
2019-02-25T18:01:46.816Z,46.37
2019-02-25T18:04:15.487Z,46.80
2019-02-25T18:06:44.551Z,47.72
2019-02-25T18:09:15.915Z,47.49
2019-02-25T18:11:43.781Z,47.33
2019-02-25T18:14:13.317Z,47.88
2019-02-25T18:16:43.640Z,47.43
2019-02-25T18:19:11.712Z,47.65
2019-02-25T18:21:43.046Z,48.13
2019-02-25T18:24:09.989Z,48.38
2019-02-25T18:26:38.669Z,48.52
2019-02-25T18:29:09.400Z,48.45
2019-02-25T18:31:37.173Z,48.16
2019-02-25T18:34:06.967Z,48.06
2019-02-25T18:36:35.563Z,48.53
2019-02-25T18:39:06.263Z,48.03
2019-02-25T18:41:35.600Z,48.17
2019-02-25T18:44:05.307Z,48.25
2019-02-25T18:46:34.164Z,48.80
2019-02-25T18:49:05.113Z,48.82
2019-02-25T18:51:35.039Z,48.77
2019-02-25T18:54:03.718Z,48.63
2019-02-25T18:56:31.392Z,48.88
2019-02-25T18:59:08.230Z,49.24
2019-02-25T19:01:29.521Z,47.98
2019-02-25T19:03:59.053Z,48.55
2019-02-25T19:06:29.255Z,48.76
2019-02-25T19:08:58.288Z,48.69
2019-02-25T19:11:28.111Z,48.00
2019-02-25T19:13:56.734Z,47.84
2019-02-25T19:16:25.380Z,47.79
2019-02-25T19:18:54.420Z,48.56
2019-02-25T19:21:25.325Z,47.72
2019-02-25T19:23:52.784Z,46.55
2019-02-25T19:26:22.249Z,46.91
2019-02-25T19:28:52.470Z,46.59
2019-02-25T19:31:20.584Z,46.08
2019-02-25T19:33:49.639Z,45.44
2019-02-25T19:36:19.217Z,45.51
2019-02-25T19:38:48.641Z,46.13
2019-02-25T19:41:17.754Z,46.74
2019-02-25T19:43:46.451Z,46.70
2019-02-25T19:46:15.753Z,46.97
2019-02-25T19:48:47.006Z,46.78
2019-02-25T19:51:14.275Z,47.79
2019-02-25T19:53:45.155Z,48.14
2019-02-25T19:56:12.975Z,47.97
2019-02-25T19:58:42.071Z,47.49
2019-02-25T20:01:11.353Z,47.06
2019-02-25T20:03:42.792Z,46.94
2019-02-25T20:06:13.862Z,47.62
2019-02-25T20:08:39.663Z,47.87
2019-02-25T20:11:09.731Z,50.37
2019-02-25T20:13:38.018Z,48.82
2019-02-25T20:16:08.135Z,48.02
2019-02-25T20:18:37.717Z,48.40
2019-02-25T20:21:08.042Z,48.61
2019-02-25T20:23:34.940Z,48.98
2019-02-25T20:26:04.166Z,47.98
2019-02-25T20:28:33.300Z,47.56
2019-02-25T20:31:02.585Z,48.07
2019-02-25T20:33:33.026Z,48.16
2019-02-25T20:36:03.027Z,48.15
2019-02-25T20:38:32.619Z,48.99
2019-02-25T20:41:00.553Z,48.63
2019-02-25T20:43:30.809Z,48.24
2019-02-25T20:45:59.325Z,48.31
2019-02-25T20:48:27.684Z,48.32
2019-02-25T20:50:59.652Z,47.95
2019-02-25T20:53:27.428Z,47.73
2019-02-25T20:55:56.723Z,48.14
2019-02-25T20:58:25.007Z,47.85
2019-02-25T21:00:54.067Z,47.76
2019-02-25T21:03:25.264Z,47.14
2019-02-25T21:05:52.317Z,47.37
2019-02-25T21:08:23.521Z,47.11
2019-02-25T21:10:51.678Z,46.23
2019-02-25T21:13:22.063Z,46.54
2019-02-25T21:15:49.591Z,46.30
2019-02-25T21:18:20.245Z,46.25
2019-02-25T21:20:49.390Z,46.20
2019-02-25T21:23:17.058Z,46.31
2019-02-25T21:25:46.257Z,45.93
2019-02-25T21:28:15.456Z,45.68
2019-02-25T21:30:46.042Z,46.28
2019-02-25T21:33:17.382Z,45.65
2019-02-25T21:35:42.786Z,45.47
2019-02-25T21:38:11.871Z,45.85
2019-02-25T21:40:41.016Z,45.52
2019-02-25T21:43:14.430Z,45.68
2019-02-25T21:45:39.263Z,44.98
2019-02-25T21:48:08.573Z,45.08
2019-02-25T21:50:38.336Z,45.00
2019-02-25T21:53:07.594Z,45.04
2019-02-25T21:55:36.262Z,45.51
2019-02-25T21:58:05.373Z,45.55
2019-02-25T22:00:37.383Z,45.69
2019-02-25T22:03:06.013Z,45.45
2019-02-25T22:05:33.247Z,45.51
2019-02-25T22:08:04.175Z,45.89
2019-02-25T22:10:34.167Z,46.03
2019-02-25T22:13:04.404Z,45.76
2019-02-25T22:15:29.838Z,46.78
2019-02-25T22:17:58.979Z,47.79
2019-02-25T22:20:28.019Z,46.19
2019-02-25T22:22:59.232Z,46.58
2019-02-25T22:25:26.548Z,46.39
2019-02-25T22:27:56.196Z,46.63
2019-02-25T22:30:25.091Z,47.17
2019-02-25T22:32:54.860Z,47.25
2019-02-25T22:35:23.730Z,47.76
2019-02-25T22:37:55.298Z,47.43
2019-02-25T22:40:21.763Z,47.26
2019-02-25T22:42:52.224Z,47.67
2019-02-25T22:45:19.861Z,47.64
2019-02-25T22:47:48.959Z,47.55
2019-02-25T22:50:18.012Z,47.90
2019-02-25T22:52:51.228Z,48.18
2019-02-25T22:55:18.364Z,48.10
2019-02-25T22:57:46.112Z,48.49
2019-02-25T23:00:27.859Z,47.94
2019-02-25T23:02:57.086Z,48.34
2019-02-25T23:05:26.349Z,48.29
2019-02-25T23:07:55.445Z,48.08
2019-02-25T23:10:25.552Z,48.22
2019-02-25T23:12:54.819Z,47.97
2019-02-25T23:15:26.955Z,47.61
2019-02-25T23:17:53.107Z,47.77
2019-02-25T23:20:23.040Z,47.95
2019-02-25T23:22:52.912Z,47.63
2019-02-25T23:25:20.534Z,47.67
2019-02-25T23:27:51.661Z,47.72
2019-02-25T23:30:18.787Z,47.60
2019-02-25T23:32:47.874Z,47.57
2019-02-25T23:35:18.475Z,47.48
2019-02-25T23:37:49.037Z,47.32
2019-02-25T23:40:16.783Z,47.50
2019-02-25T23:42:46.499Z,46.93
2019-02-25T23:45:15.180Z,47.34
2019-02-25T23:47:42.678Z,47.67
2019-02-25T23:50:13.712Z,47.23
2019-02-25T23:52:41.908Z,46.51
2019-02-25T23:55:14.304Z,46.91
2019-02-25T23:57:41.286Z,46.91
